createdAt,value
2022-11-02T00:01:40.871Z,1.20
2022-11-02T00:04:08.560Z,1.08
2022-11-02T00:06:36.212Z,1.10
2022-11-02T00:09:03.775Z,1.38
2022-11-02T00:11:31.090Z,1.25
2022-11-02T00:13:58.377Z,0.98
2022-11-02T00:16:26.416Z,1.00
2022-11-02T00:18:56.460Z,1.40
2022-11-02T00:21:25.813Z,0.90
2022-11-02T00:23:54.970Z,1.05
2022-11-02T00:26:22.425Z,0.85
2022-11-02T00:28:50.024Z,0.90
2022-11-02T00:31:17.289Z,1.13
2022-11-02T00:33:44.516Z,0.90
2022-11-02T00:36:12.095Z,0.82
2022-11-02T00:38:39.293Z,1.23
2022-11-02T00:41:06.612Z,0.90
2022-11-02T00:43:34.028Z,1.02
2022-11-02T00:46:01.578Z,0.80
2022-11-02T00:48:28.785Z,1.10
2022-11-02T00:50:56.234Z,0.70
2022-11-02T00:53:23.484Z,0.80
2022-11-02T00:55:51.344Z,1.00
2022-11-02T00:58:18.557Z,0.80
2022-11-02T01:00:45.809Z,0.85
2022-11-02T01:03:13.016Z,1.02
2022-11-02T01:05:40.289Z,1.00
2022-11-02T01:08:07.654Z,1.08
2022-11-02T01:10:35.117Z,0.77
2022-11-02T01:13:02.490Z,1.10
2022-11-02T01:15:29.715Z,1.00
2022-11-02T01:17:56.913Z,0.80
2022-11-02T01:20:24.192Z,0.90
2022-11-02T01:22:51.419Z,0.98
2022-11-02T01:25:18.691Z,0.77
2022-11-02T01:27:46.078Z,0.80
2022-11-02T01:30:13.769Z,0.68
2022-11-02T01:32:41.022Z,1.00
2022-11-02T01:35:08.665Z,0.70
2022-11-02T01:37:35.898Z,1.13
2022-11-02T01:40:03.186Z,0.80
2022-11-02T01:42:30.441Z,0.93
2022-11-02T01:44:57.688Z,1.02
2022-11-02T01:47:39.951Z,0.95
2022-11-02T01:50:19.246Z,1.00
2022-11-02T01:52:46.529Z,0.80
2022-11-02T01:55:29.342Z,1.00
2022-11-02T01:58:10.013Z,1.00
2022-11-02T02:00:38.725Z,0.75
2022-11-02T02:03:12.507Z,0.85
2022-11-02T02:05:49.757Z,0.60
2022-11-02T02:08:20.400Z,1.00
2022-11-02T02:10:47.695Z,1.05
2022-11-02T02:13:16.253Z,1.00
2022-11-02T02:16:11.418Z,1.00
2022-11-02T02:18:48.677Z,0.90
2022-11-02T02:21:29.978Z,1.00
2022-11-02T02:24:07.859Z,0.95
2022-11-02T02:27:04.875Z,0.82
2022-11-02T02:29:52.683Z,1.40
2022-11-02T02:32:35.209Z,1.63
2022-11-02T02:35:27.131Z,0.90
2022-11-02T02:38:01.968Z,1.00
2022-11-02T02:40:37.884Z,0.98
2022-11-02T02:43:15.646Z,0.98
2022-11-02T02:45:54.419Z,0.90
2022-11-02T02:48:24.258Z,0.90
2022-11-02T02:51:02.256Z,1.10
2022-11-02T02:53:50.748Z,1.17
2022-11-02T02:56:23.384Z,1.13
2022-11-02T02:59:03.032Z,1.10
2022-11-02T03:01:31.103Z,0.95
2022-11-02T03:03:58.552Z,1.17
2022-11-02T03:06:31.567Z,1.52
2022-11-02T03:09:22.739Z,1.13
2022-11-02T03:12:29.687Z,1.30
2022-11-02T03:15:21.565Z,1.38
2022-11-02T03:18:10.302Z,1.50
2022-11-02T03:20:43.508Z,1.05
2022-11-02T03:23:24.762Z,1.10
2022-11-02T03:26:11.898Z,1.10
2022-11-02T03:29:13.412Z,1.30
2022-11-02T03:31:54.953Z,1.20
2022-11-02T03:34:32.917Z,0.98
2022-11-02T03:37:36.080Z,1.20
2022-11-02T03:40:06.444Z,1.20
2022-11-02T03:42:35.389Z,1.50
2022-11-02T03:45:13.196Z,1.00
2022-11-02T03:47:44.217Z,1.55
2022-11-02T03:50:15.074Z,1.30
2022-11-02T03:52:45.865Z,1.30
2022-11-02T03:55:20.557Z,1.38
2022-11-02T03:57:50.787Z,1.27
2022-11-02T04:00:26.147Z,1.38
2022-11-02T04:02:58.844Z,1.75
2022-11-02T04:05:34.903Z,1.40
2022-11-02T04:08:21.488Z,1.27
2022-11-02T04:11:11.465Z,1.27
2022-11-02T04:13:57.545Z,1.25
2022-11-02T04:16:27.519Z,1.23
2022-11-02T04:19:14.053Z,1.20
2022-11-02T04:22:01.612Z,1.10
2022-11-02T04:24:47.655Z,1.38
2022-11-02T04:27:19.677Z,1.42
2022-11-02T04:29:48.480Z,1.27
2022-11-02T04:32:36.000Z,1.38
2022-11-02T04:35:04.121Z,1.40
2022-11-02T04:37:50.056Z,1.00
2022-11-02T04:40:17.698Z,1.45
2022-11-02T04:42:47.602Z,1.40
2022-11-02T04:45:14.846Z,1.17
2022-11-02T04:47:42.319Z,1.50
2022-11-02T04:50:10.304Z,1.10
2022-11-02T04:52:37.522Z,1.30
2022-11-02T04:55:05.088Z,1.25
2022-11-02T04:57:32.383Z,1.50
2022-11-02T04:59:59.826Z,1.25
2022-11-02T05:02:27.107Z,1.25
2022-11-02T05:04:54.442Z,0.95
2022-11-02T05:07:21.637Z,1.20
2022-11-02T05:09:48.872Z,1.05
2022-11-02T05:12:16.123Z,1.25
2022-11-02T05:14:43.659Z,1.02
2022-11-02T05:17:10.933Z,0.88
2022-11-02T05:19:38.131Z,0.98
2022-11-02T05:22:05.327Z,0.98
2022-11-02T05:24:32.610Z,1.02
2022-11-02T05:27:02.484Z,0.93
2022-11-02T05:29:29.746Z,1.40
2022-11-02T05:31:58.169Z,0.80
2022-11-02T05:34:25.380Z,1.40
2022-11-02T05:36:52.633Z,1.08
2022-11-02T05:39:20.015Z,1.13
2022-11-02T05:41:47.241Z,0.90
2022-11-02T05:44:14.478Z,1.13
2022-11-02T05:46:43.836Z,1.00
2022-11-02T05:49:11.069Z,1.38
2022-11-02T05:51:38.258Z,1.10
2022-11-02T05:54:05.558Z,0.80
2022-11-02T05:56:32.778Z,1.40
2022-11-02T05:58:59.983Z,1.08
2022-11-02T06:01:27.316Z,0.90
2022-11-02T06:03:54.742Z,0.90
2022-11-02T06:06:22.216Z,1.13
2022-11-02T06:08:49.766Z,1.17
2022-11-02T06:11:17.297Z,1.08
2022-11-02T06:13:44.588Z,1.20
2022-11-02T06:16:18.754Z,1.08
2022-11-02T06:18:49.894Z,1.55
2022-11-02T06:21:17.198Z,1.48
2022-11-02T06:23:46.693Z,1.45
2022-11-02T06:26:13.988Z,1.38
2022-11-02T06:28:41.551Z,1.38
2022-11-02T06:31:08.870Z,1.23
2022-11-02T06:33:36.118Z,1.40
2022-11-02T06:36:03.487Z,1.40
2022-11-02T06:38:30.683Z,1.30
2022-11-02T06:41:04.147Z,1.25
2022-11-02T06:43:31.646Z,1.38
2022-11-02T06:45:59.359Z,1.10
2022-11-02T06:48:34.355Z,1.20
2022-11-02T06:51:02.829Z,1.60
2022-11-02T06:53:30.043Z,1.00
2022-11-02T06:55:58.867Z,1.48
2022-11-02T06:58:26.501Z,1.33
2022-11-02T07:01:07.538Z,1.15
2022-11-02T07:03:35.559Z,1.35
2022-11-02T07:06:03.464Z,1.23
2022-11-02T07:08:30.695Z,1.30
2022-11-02T07:10:58.204Z,0.98
2022-11-02T07:13:25.772Z,1.23
2022-11-02T07:15:56.410Z,1.10
2022-11-02T07:18:23.743Z,1.30
2022-11-02T07:20:51.180Z,1.20
2022-11-02T07:23:18.488Z,1.00
2022-11-02T07:25:45.725Z,1.10
2022-11-02T07:28:12.963Z,1.00
2022-11-02T07:30:40.188Z,1.08
2022-11-02T07:33:07.728Z,0.88
2022-11-02T07:35:35.382Z,0.90
2022-11-02T07:38:04.970Z,1.15
2022-11-02T07:40:34.058Z,1.10
2022-11-02T07:43:02.168Z,1.20
2022-11-02T07:45:29.790Z,0.98
2022-11-02T07:47:57.020Z,1.05
2022-11-02T07:50:27.054Z,1.23
2022-11-02T07:52:56.753Z,1.00
2022-11-02T07:55:26.630Z,1.38
2022-11-02T07:58:14.161Z,0.80
2022-11-02T08:00:42.261Z,1.25
2022-11-02T08:03:11.652Z,1.05
2022-11-02T08:05:41.410Z,1.10
2022-11-02T08:08:14.992Z,1.30
2022-11-02T08:10:43.599Z,0.88
2022-11-02T08:13:14.066Z,0.90
2022-11-02T08:15:41.744Z,1.20
2022-11-02T08:18:22.684Z,0.82
2022-11-02T08:20:50.534Z,1.17
2022-11-02T08:23:19.277Z,1.27
2022-11-02T08:25:48.137Z,1.20
2022-11-02T08:28:31.914Z,1.13
2022-11-02T08:30:59.544Z,1.05
2022-11-02T08:33:27.893Z,1.10
2022-11-02T08:36:00.938Z,1.10
2022-11-02T08:38:28.135Z,0.90
2022-11-02T08:40:56.116Z,1.08
2022-11-02T08:43:23.583Z,1.00
2022-11-02T08:48:38.287Z,1.00
2022-11-02T08:51:05.803Z,1.15
2022-11-02T08:53:33.042Z,0.98
2022-11-02T08:56:00.349Z,0.80
2022-11-02T08:58:27.559Z,1.10
2022-11-02T09:00:55.505Z,1.00
2022-11-02T09:03:27.018Z,1.08
2022-11-02T09:05:59.691Z,1.00
2022-11-02T09:08:28.130Z,1.10
2022-11-02T09:11:00.428Z,0.90
2022-11-02T09:13:28.325Z,1.00
2022-11-02T09:15:58.388Z,1.58
2022-11-02T09:18:26.317Z,1.30
2022-11-02T09:20:53.576Z,1.20
2022-11-02T09:23:22.341Z,1.10
2022-11-02T09:25:50.241Z,1.00
2022-11-02T09:28:17.853Z,1.35
2022-11-02T09:30:45.546Z,1.38
2022-11-02T09:33:13.480Z,1.60
2022-11-02T09:35:46.177Z,1.38
2022-11-02T09:38:14.091Z,1.95
2022-11-02T09:40:51.291Z,1.60
2022-11-02T09:43:32.215Z,1.92
2022-11-02T09:46:07.723Z,1.60
2022-11-02T09:48:40.725Z,1.92
2022-11-02T09:51:15.992Z,2.03
2022-11-02T09:53:56.969Z,2.00
2022-11-02T09:56:24.337Z,1.60
2022-11-02T09:59:15.106Z,1.73
2022-11-02T10:02:02.337Z,2.17
2022-11-02T10:04:47.014Z,1.73
2022-11-02T10:07:36.248Z,1.75
2022-11-02T10:10:15.785Z,1.95
2022-11-02T10:13:28.133Z,2.85
2022-11-02T10:16:05.895Z,2.72
2022-11-02T10:18:36.314Z,3.45
2022-11-02T10:21:10.457Z,3.63
2022-11-02T10:23:42.357Z,3.55
2022-11-02T10:26:28.146Z,4.72
2022-11-02T10:29:19.077Z,4.05
2022-11-02T10:31:46.715Z,4.63
2022-11-02T10:34:30.224Z,5.32
2022-11-02T10:37:21.504Z,4.70
2022-11-02T10:40:04.268Z,5.57
2022-11-02T10:43:16.795Z,5.97
2022-11-02T10:45:44.057Z,5.65
2022-11-02T10:48:45.191Z,5.80
2022-11-02T10:51:15.334Z,6.93
2022-11-02T10:53:45.556Z,6.55
2022-11-02T10:56:33.133Z,6.05
2022-11-02T10:59:02.928Z,5.55
2022-11-02T11:01:31.902Z,6.22
2022-11-02T11:04:20.086Z,6.72
2022-11-02T11:06:47.428Z,6.32
2022-11-02T11:09:24.766Z,6.93
2022-11-02T11:12:07.197Z,8.82
2022-11-02T11:20:47.464Z,7.45
2022-11-02T11:23:25.934Z,7.75
2022-11-02T11:26:30.266Z,7.22
2022-11-02T11:28:58.044Z,8.02
2022-11-02T11:31:25.720Z,7.45
2022-11-02T11:33:55.964Z,7.80
2022-11-02T11:36:29.150Z,7.15
2022-11-02T11:39:00.535Z,8.43
2022-11-02T11:41:29.451Z,7.05
2022-11-02T11:43:57.150Z,8.02
2022-11-02T11:46:38.779Z,7.72
2022-11-02T11:49:18.569Z,7.70
2022-11-02T11:51:51.803Z,8.00
2022-11-02T11:54:28.847Z,8.35
2022-11-02T11:57:16.710Z,8.00
2022-11-02T11:59:43.890Z,7.90
2022-11-02T12:02:27.528Z,8.27
2022-11-02T12:05:16.519Z,8.57
2022-11-02T12:08:18.443Z,8.20
2022-11-02T12:10:48.688Z,8.15
2022-11-02T12:13:22.003Z,9.25
2022-11-02T12:16:12.621Z,9.13
2022-11-02T12:18:49.245Z,8.68
2022-11-02T12:21:43.338Z,9.05
2022-11-02T12:24:13.577Z,8.07
2022-11-02T12:26:53.252Z,8.55
2022-11-02T12:29:38.429Z,8.95
2022-11-02T12:32:14.513Z,8.93
2022-11-02T12:35:27.868Z,8.25
2022-11-02T12:37:59.256Z,8.20
2022-11-02T12:40:32.296Z,9.73
2022-11-02T12:43:32.865Z,9.07
2022-11-02T12:46:39.670Z,9.30
2022-11-02T12:49:48.772Z,9.63
2022-11-02T12:52:16.708Z,9.80
2022-11-02T12:55:00.355Z,10.02
2022-11-02T12:57:33.227Z,8.77
2022-11-02T13:00:18.665Z,10.85
2022-11-02T13:03:13.370Z,9.30
2022-11-02T13:05:48.492Z,10.27
2022-11-02T13:08:22.591Z,10.60
2022-11-02T13:10:58.260Z,11.23
2022-11-02T13:13:52.570Z,10.77
2022-11-02T13:16:39.765Z,10.40
2022-11-02T13:19:21.975Z,10.88
2022-11-02T13:21:55.034Z,10.95
2022-11-02T13:24:33.630Z,11.25
2022-11-02T13:27:21.785Z,12.25
2022-11-02T13:29:57.811Z,11.48
2022-11-02T13:32:41.823Z,11.52
2022-11-02T13:35:35.401Z,14.00
2022-11-02T13:38:23.515Z,12.63
2022-11-02T13:41:32.095Z,12.65
2022-11-02T13:44:23.739Z,10.95
2022-11-02T13:47:35.173Z,12.63
2022-11-02T13:50:04.837Z,11.70
2022-11-02T13:52:46.029Z,11.90
2022-11-02T13:55:27.568Z,13.35
2022-11-02T13:57:58.710Z,14.27
2022-11-02T14:00:25.930Z,12.82
2022-11-02T14:03:08.183Z,14.25
2022-11-02T14:05:44.870Z,13.18
2022-11-02T14:08:34.271Z,12.75
2022-11-02T14:11:34.061Z,12.57
2022-11-02T14:14:04.338Z,12.82
2022-11-02T14:16:46.847Z,11.60
2022-11-02T14:19:20.717Z,10.27
2022-11-02T14:22:00.473Z,10.35
2022-11-02T14:24:34.007Z,10.80
2022-11-02T14:27:04.990Z,11.27
2022-11-02T14:29:51.564Z,8.90
2022-11-02T14:32:23.827Z,8.80
2022-11-02T14:35:27.670Z,8.82
2022-11-02T14:38:00.905Z,8.80
2022-11-02T14:40:43.298Z,8.05
2022-11-02T14:43:35.207Z,8.88
2022-11-02T14:46:27.217Z,9.43
2022-11-02T14:48:58.004Z,9.20
2022-11-02T14:51:36.519Z,9.07
2022-11-02T14:54:16.612Z,9.68
2022-11-02T14:57:06.298Z,11.88
2022-11-02T14:59:40.598Z,11.27
2022-11-02T15:02:29.890Z,10.88
2022-11-02T15:05:00.889Z,9.90
2022-11-02T15:07:42.178Z,10.77
2022-11-02T15:10:18.424Z,11.40
2022-11-02T15:12:48.407Z,11.40
2022-11-02T15:15:37.934Z,12.15
2022-11-02T15:18:31.323Z,11.18
2022-11-02T15:21:10.892Z,10.80
2022-11-02T15:24:06.036Z,12.18
2022-11-02T15:26:49.314Z,10.18
2022-11-02T15:29:32.413Z,12.30
2022-11-02T15:32:01.939Z,13.20
2022-11-02T15:34:47.353Z,12.52
2022-11-02T15:37:22.032Z,13.05
2022-11-02T15:39:55.266Z,12.82
2022-11-02T15:42:41.889Z,12.80
2022-11-02T15:45:56.891Z,12.35
2022-11-02T15:48:38.383Z,13.27
2022-11-02T15:51:24.825Z,12.93
2022-11-02T15:54:23.551Z,12.35
2022-11-02T15:57:29.303Z,11.90
2022-11-02T16:00:18.917Z,10.70
2022-11-02T16:02:53.620Z,11.68
2022-11-02T16:05:23.967Z,11.45
2022-11-02T16:10:41.843Z,11.98
2022-11-02T16:13:16.931Z,10.65
2022-11-02T16:15:48.983Z,11.80
2022-11-02T16:18:28.261Z,11.68
2022-11-02T16:21:02.170Z,11.93
2022-11-02T16:23:32.377Z,13.30
2022-11-02T16:26:01.514Z,10.93
2022-11-02T16:28:34.239Z,12.38
2022-11-02T16:31:30.707Z,10.88
2022-11-02T16:34:00.738Z,11.10
2022-11-02T16:36:29.565Z,10.00
2022-11-02T16:39:02.696Z,12.73
2022-11-02T16:41:32.799Z,12.50
2022-11-02T16:44:15.731Z,11.50
2022-11-02T16:47:16.137Z,10.60
2022-11-02T16:49:52.270Z,10.43
2022-11-02T16:52:33.815Z,9.43
2022-11-02T16:55:01.900Z,8.73
2022-11-02T16:57:44.015Z,9.60
2022-11-02T17:00:21.326Z,9.70
2022-11-02T17:02:48.740Z,9.90
2022-11-02T17:05:25.855Z,9.48
2022-11-02T17:08:24.318Z,9.63
2022-11-02T17:10:57.610Z,10.38
2022-11-02T17:13:26.977Z,9.23
2022-11-02T17:15:56.837Z,9.48
2022-11-02T17:18:26.723Z,10.13
2022-11-02T17:21:12.681Z,9.25
2022-11-02T17:23:49.987Z,9.32
2022-11-02T17:26:23.397Z,10.57
2022-11-02T17:28:59.080Z,10.43
2022-11-02T17:31:35.938Z,9.80
2022-11-02T17:34:18.180Z,9.60
2022-11-02T17:36:47.848Z,9.48
2022-11-02T17:39:17.018Z,9.00
2022-11-02T17:42:07.935Z,9.02
2022-11-02T17:44:35.194Z,8.95
2022-11-02T17:47:02.848Z,9.50
2022-11-02T17:49:30.034Z,9.88
2022-11-02T17:51:57.595Z,8.70
2022-11-02T17:54:25.085Z,10.77
2022-11-02T17:56:52.362Z,9.82
2022-11-02T17:59:19.621Z,9.48
2022-11-02T18:01:47.141Z,10.65
2022-11-02T18:04:14.512Z,10.10
2022-11-02T18:06:41.782Z,9.50
2022-11-02T18:09:13.843Z,9.20
2022-11-02T18:11:41.737Z,8.93
2022-11-02T18:14:14.370Z,9.50
2022-11-02T18:16:41.602Z,9.25
2022-11-02T18:19:09.188Z,9.88
2022-11-02T18:21:36.509Z,9.05
2022-11-02T18:24:03.879Z,8.63
2022-11-02T18:26:31.077Z,10.15
2022-11-02T18:28:58.376Z,8.95
2022-11-02T18:31:25.664Z,9.88
2022-11-02T18:33:53.060Z,9.50
2022-11-02T18:36:20.477Z,9.75
2022-11-02T18:38:47.909Z,9.52
2022-11-02T18:41:31.044Z,9.40
2022-11-02T18:44:11.909Z,10.70
2022-11-02T18:46:42.033Z,10.23
2022-11-02T18:49:09.342Z,9.35
2022-11-02T18:51:36.551Z,10.05
2022-11-02T18:54:06.039Z,9.70
2022-11-02T18:56:33.577Z,10.52
2022-11-02T18:59:00.878Z,10.10
2022-11-02T19:01:28.559Z,10.13
2022-11-02T19:03:58.348Z,9.57
2022-11-02T19:06:46.050Z,10.73
2022-11-02T19:09:21.125Z,10.20
2022-11-02T19:12:00.522Z,11.05
2022-11-02T19:14:42.876Z,9.82
2022-11-02T19:17:11.359Z,10.27
2022-11-02T19:19:43.169Z,9.45
2022-11-02T19:22:13.158Z,10.23
2022-11-02T19:24:40.596Z,9.63
2022-11-02T19:27:12.153Z,10.27
2022-11-02T19:29:39.430Z,10.15
2022-11-02T19:32:06.822Z,9.90
2022-11-02T19:34:34.442Z,9.30
2022-11-02T19:37:01.717Z,9.75
2022-11-02T19:39:28.975Z,9.80
2022-11-02T19:41:56.208Z,9.18
2022-11-02T19:44:23.568Z,10.20
2022-11-02T19:46:50.953Z,9.75
2022-11-02T19:49:18.247Z,9.43
2022-11-02T19:51:45.524Z,9.40
2022-11-02T19:54:12.856Z,9.35
2022-11-02T19:56:40.683Z,9.20
2022-11-02T19:59:07.971Z,9.75
2022-11-02T20:01:37.683Z,9.43
2022-11-02T20:04:05.875Z,9.60
2022-11-02T20:06:41.869Z,9.95
2022-11-02T20:09:15.346Z,9.23
2022-11-02T20:11:44.772Z,9.40
2022-11-02T20:14:13.773Z,9.35
2022-11-02T20:16:41.296Z,9.20
2022-11-02T20:19:09.258Z,8.75
2022-11-02T20:21:42.501Z,9.60
2022-11-02T20:24:11.135Z,9.57
2022-11-02T20:26:43.600Z,9.77
2022-11-02T20:29:13.927Z,9.20
2022-11-02T20:31:44.629Z,9.40
2022-11-02T20:34:13.601Z,9.13
2022-11-02T20:36:41.297Z,9.77
2022-11-02T20:39:10.845Z,10.55
2022-11-02T20:41:38.148Z,9.50
2022-11-02T20:44:05.482Z,10.40
2022-11-02T20:46:41.922Z,9.52
2022-11-02T20:51:58.153Z,9.23
2022-11-02T20:54:26.592Z,8.27
2022-11-02T20:56:53.887Z,7.95
2022-11-02T20:59:21.117Z,8.60
2022-11-02T21:01:48.486Z,7.55
2022-11-02T21:04:20.788Z,8.18
2022-11-02T21:06:49.758Z,7.28
2022-11-02T21:09:18.087Z,7.55
2022-11-02T21:12:03.800Z,7.80
2022-11-02T21:14:31.036Z,7.22
2022-11-02T21:16:58.468Z,7.93
2022-11-02T21:19:25.778Z,7.75
2022-11-02T21:21:58.265Z,7.22
2022-11-02T21:24:27.743Z,7.43
2022-11-02T21:26:55.050Z,7.38
2022-11-02T21:29:22.647Z,6.95
2022-11-02T21:31:50.078Z,6.82
2022-11-02T21:34:17.334Z,6.68
2022-11-02T21:36:44.592Z,7.05
2022-11-02T21:39:11.886Z,6.72
2022-11-02T21:41:39.475Z,6.20
2022-11-02T21:44:07.730Z,6.40
2022-11-02T21:46:35.517Z,6.30
2022-11-02T21:49:03.028Z,5.63
2022-11-02T21:51:30.425Z,6.10
2022-11-02T21:53:57.758Z,6.10
2022-11-02T21:56:27.722Z,5.63
2022-11-02T21:58:56.060Z,6.25
2022-11-02T22:01:45.312Z,5.57
2022-11-02T22:04:24.972Z,6.30
2022-11-02T22:06:52.722Z,5.93
2022-11-02T22:09:20.343Z,5.32
2022-11-02T22:11:47.949Z,5.95
2022-11-02T22:14:15.210Z,5.22
2022-11-02T22:16:43.397Z,5.47
2022-11-02T22:19:15.379Z,5.78
2022-11-02T22:21:44.439Z,5.57
2022-11-02T22:24:12.015Z,6.25
2022-11-02T22:26:40.292Z,5.90
2022-11-02T22:29:08.423Z,5.82
2022-11-02T22:31:40.854Z,6.22
2022-11-02T22:34:10.611Z,6.03
2022-11-02T22:36:39.961Z,5.90
2022-11-02T22:39:09.305Z,5.93
2022-11-02T22:41:41.086Z,6.25
2022-11-02T22:44:19.090Z,6.60
2022-11-02T22:46:49.660Z,7.13
2022-11-02T22:49:18.628Z,6.15
2022-11-02T22:51:48.489Z,6.22
2022-11-02T22:54:18.055Z,6.60
2022-11-02T22:56:47.314Z,6.43
2022-11-02T22:59:14.654Z,6.22
2022-11-02T23:01:42.407Z,6.22
2022-11-02T23:04:11.798Z,6.68
2022-11-02T23:06:39.385Z,5.80
2022-11-02T23:09:07.194Z,7.13
2022-11-02T23:11:36.747Z,5.47
2022-11-02T23:14:09.859Z,6.47
2022-11-02T23:16:42.383Z,6.38
2022-11-02T23:19:27.216Z,6.20
2022-11-02T23:22:17.950Z,6.63
2022-11-02T23:25:07.742Z,6.38
2022-11-02T23:27:56.936Z,6.80
2022-11-02T23:30:44.774Z,6.03
2022-11-02T23:33:12.045Z,6.70
2022-11-02T23:35:58.073Z,6.15
2022-11-02T23:38:45.261Z,6.10
2022-11-02T23:41:12.556Z,5.82
2022-11-02T23:43:39.812Z,6.55
2022-11-02T23:46:07.306Z,7.28
2022-11-02T23:48:34.577Z,7.18
2022-11-02T23:51:20.978Z,7.55
2022-11-02T23:54:06.896Z,7.35
2022-11-02T23:56:43.735Z,7.90
2022-11-02T23:59:15.225Z,7.65
